createdAt,value
2023-01-28T00:01:29.920Z,88.81
2023-01-28T00:03:56.805Z,89.39
2023-01-28T00:06:23.661Z,88.56
2023-01-28T00:08:51.125Z,88.22
2023-01-28T00:11:18.068Z,88.61
2023-01-28T00:13:44.987Z,88.75
2023-01-28T00:16:11.968Z,88.53
2023-01-28T00:18:38.899Z,88.66
2023-01-28T00:21:11.942Z,88.35
2023-01-28T00:23:41.416Z,88.43
2023-01-28T00:26:12.599Z,88.44
2023-01-28T00:28:43.219Z,87.90
2023-01-28T00:31:18.276Z,87.78
2023-01-28T00:33:48.491Z,87.85
2023-01-28T00:36:16.927Z,88.13
2023-01-28T00:38:44.291Z,87.70
2023-01-28T00:41:16.441Z,87.71
2023-01-28T00:43:45.144Z,88.08
2023-01-28T00:46:12.746Z,88.27
2023-01-28T00:48:40.985Z,87.68
2023-01-28T00:51:09.122Z,88.70
2023-01-28T00:53:37.329Z,88.50
2023-01-28T00:56:06.108Z,88.13
2023-01-28T00:58:33.367Z,87.78
2023-01-28T01:01:17.555Z,88.52
2023-01-28T01:03:45.082Z,87.94
2023-01-28T01:06:13.748Z,88.46
2023-01-28T01:08:41.815Z,88.17
2023-01-28T01:11:11.324Z,88.47
2023-01-28T01:13:39.690Z,88.46
2023-01-28T01:16:16.071Z,88.18
2023-01-28T01:18:43.481Z,87.66
2023-01-28T01:21:18.705Z,88.03
2023-01-28T01:23:46.507Z,87.59
2023-01-28T01:26:15.592Z,88.72
2023-01-28T01:28:45.207Z,88.08
2023-01-28T01:31:16.760Z,88.17
2023-01-28T01:33:45.713Z,87.68
2023-01-28T01:36:15.054Z,87.37
2023-01-28T01:38:45.528Z,87.44
2023-01-28T01:41:30.613Z,87.44
2023-01-28T01:44:00.828Z,87.47
2023-01-28T01:46:48.899Z,87.81
2023-01-28T01:52:22.226Z,86.81
2023-01-28T01:54:53.922Z,87.53
2023-01-28T01:57:29.962Z,87.24
2023-01-28T02:00:01.862Z,87.49
2023-01-28T02:02:28.815Z,87.68
2023-01-28T02:05:01.319Z,87.96
2023-01-28T02:07:29.143Z,87.03
2023-01-28T02:10:26.254Z,87.19
2023-01-28T02:12:57.562Z,87.65
2023-01-28T02:15:31.175Z,88.07
2023-01-28T02:17:58.717Z,87.82
2023-01-28T02:20:51.255Z,87.60
2023-01-28T02:23:27.214Z,86.57
2023-01-28T02:26:18.181Z,87.45
2023-01-28T02:29:10.341Z,87.85
2023-01-28T02:32:04.859Z,87.98
2023-01-28T02:34:31.728Z,88.39
2023-01-28T02:37:01.717Z,88.81
2023-01-28T02:39:38.293Z,88.52
2023-01-28T02:42:32.226Z,88.76
2023-01-28T02:44:59.838Z,88.43
2023-01-28T02:47:27.027Z,88.48
2023-01-28T02:49:59.259Z,88.67
2023-01-28T02:52:36.676Z,88.55
2023-01-28T02:55:16.607Z,88.44
2023-01-28T02:57:56.859Z,88.53
2023-01-28T03:00:40.010Z,88.45
2023-01-28T03:03:07.686Z,88.70
2023-01-28T03:06:08.264Z,87.98
2023-01-28T03:08:39.328Z,87.75
2023-01-28T03:11:06.969Z,88.18
2023-01-28T03:13:37.460Z,88.97
2023-01-28T03:16:04.809Z,88.54
2023-01-28T03:18:53.220Z,88.80
2023-01-28T03:21:33.081Z,88.86
2023-01-28T03:24:13.391Z,88.48
2023-01-28T03:27:10.365Z,88.70
2023-01-28T03:29:42.033Z,88.91
2023-01-28T03:32:13.299Z,89.42
2023-01-28T03:34:42.311Z,89.42
2023-01-28T03:37:09.674Z,89.03
2023-01-28T03:39:50.227Z,89.26
2023-01-28T03:42:18.162Z,89.24
2023-01-28T03:45:05.506Z,90.01
2023-01-28T03:47:57.642Z,89.93
2023-01-28T03:50:24.854Z,90.42
2023-01-28T03:52:56.699Z,91.47
2023-01-28T03:55:31.457Z,91.64
2023-01-28T03:57:58.724Z,91.74
2023-01-28T04:00:25.973Z,91.54
2023-01-28T04:02:56.454Z,91.98
2023-01-28T04:05:25.002Z,92.21
2023-01-28T04:07:56.957Z,92.11
2023-01-28T04:10:50.005Z,91.70
2023-01-28T04:13:30.002Z,91.82
2023-01-28T04:16:00.921Z,91.51
2023-01-28T04:18:28.050Z,91.43
2023-01-28T04:20:58.284Z,91.66
2023-01-28T04:23:25.824Z,91.96
2023-01-28T04:25:52.733Z,92.07
2023-01-28T04:28:21.477Z,91.77
2023-01-28T04:30:48.790Z,92.21
2023-01-28T04:33:22.284Z,92.19
2023-01-28T04:36:01.855Z,92.52
2023-01-28T04:38:54.298Z,92.64
2023-01-28T04:41:35.991Z,93.01
2023-01-28T04:44:13.136Z,93.73
2023-01-28T04:47:07.089Z,94.19
2023-01-28T04:49:58.269Z,93.69
2023-01-28T04:52:42.077Z,93.29
2023-01-28T04:58:11.480Z,93.20
2023-01-28T05:00:39.106Z,92.88
2023-01-28T05:03:06.148Z,93.62
2023-01-28T05:05:33.330Z,93.58
2023-01-28T05:08:17.019Z,93.17
2023-01-28T05:10:46.401Z,92.71
2023-01-28T05:13:13.482Z,93.03
2023-01-28T05:15:40.715Z,93.22
2023-01-28T05:18:08.157Z,93.48
2023-01-28T05:20:41.164Z,93.41
2023-01-28T05:23:08.077Z,94.05
2023-01-28T05:25:53.343Z,94.42
2023-01-28T05:28:21.179Z,94.42
2023-01-28T05:30:48.971Z,94.75
2023-01-28T05:33:16.104Z,94.62
2023-01-28T05:35:44.301Z,94.95
2023-01-28T05:38:14.238Z,95.41
2023-01-28T05:40:45.313Z,95.54
2023-01-28T05:43:12.326Z,95.68
2023-01-28T05:45:46.897Z,95.61
2023-01-28T05:48:37.580Z,95.56
2023-01-28T05:51:16.359Z,95.23
2023-01-28T05:53:46.611Z,95.48
2023-01-28T05:59:07.348Z,95.45
2023-01-28T06:01:59.485Z,96.12
2023-01-28T06:04:28.385Z,96.19
2023-01-28T06:06:55.478Z,95.89
2023-01-28T06:09:22.353Z,96.52
2023-01-28T06:11:52.280Z,95.75
2023-01-28T06:14:20.019Z,95.78
2023-01-28T06:17:09.218Z,95.29
2023-01-28T06:19:59.577Z,94.96
2023-01-28T06:22:27.343Z,94.96
2023-01-28T06:24:54.157Z,94.82
2023-01-28T06:27:21.865Z,94.41
2023-01-28T06:29:49.390Z,94.57
2023-01-28T06:32:16.889Z,94.14
2023-01-28T06:34:43.778Z,94.62
2023-01-28T06:40:13.724Z,93.85
2023-01-28T06:42:40.878Z,93.87
2023-01-28T06:45:08.233Z,94.26
2023-01-28T06:47:35.421Z,94.20
2023-01-28T06:50:02.209Z,93.83
2023-01-28T06:52:29.182Z,94.58
2023-01-28T06:54:56.475Z,94.26
2023-01-28T06:57:23.342Z,95.02
2023-01-28T06:59:52.834Z,94.32
2023-01-28T07:02:20.050Z,94.71
2023-01-28T07:04:46.812Z,94.53
2023-01-28T07:07:13.780Z,94.71
2023-01-28T07:09:40.604Z,94.82
2023-01-28T07:12:32.321Z,94.60
2023-01-28T07:15:00.369Z,95.02
2023-01-28T07:17:27.580Z,94.71
2023-01-28T07:19:54.503Z,94.79
2023-01-28T07:22:47.432Z,95.07
2023-01-28T07:25:15.739Z,95.20
2023-01-28T07:27:50.776Z,95.44
2023-01-28T07:30:21.612Z,95.23
2023-01-28T07:32:54.261Z,96.84
2023-01-28T07:35:23.227Z,96.52
2023-01-28T07:37:58.359Z,96.17
2023-01-28T07:40:27.444Z,96.52
2023-01-28T07:42:55.193Z,95.97
2023-01-28T07:45:24.488Z,95.94
2023-01-28T07:53:45.511Z,95.20
2023-01-28T07:56:13.986Z,95.26
2023-01-28T07:58:40.868Z,94.96
2023-01-28T08:01:09.359Z,95.07
2023-01-28T08:03:36.221Z,94.92
2023-01-28T08:06:05.340Z,95.23
2023-01-28T08:08:32.164Z,95.24
2023-01-28T08:11:10.435Z,95.73
2023-01-28T08:13:37.640Z,95.12
2023-01-28T08:16:09.489Z,95.17
2023-01-28T08:18:39.909Z,95.64
2023-01-28T08:21:07.415Z,95.37
2023-01-28T08:23:34.889Z,95.99
2023-01-28T08:26:03.549Z,96.19
2023-01-28T08:28:30.895Z,96.26
2023-01-28T08:31:00.720Z,96.25
2023-01-28T08:36:44.062Z,95.86
2023-01-28T08:39:10.898Z,95.73
2023-01-28T08:41:37.862Z,94.72
2023-01-28T08:44:06.410Z,95.21
2023-01-28T08:46:33.907Z,94.91
2023-01-28T08:49:00.714Z,95.29
2023-01-28T08:51:28.575Z,94.93
2023-01-28T08:53:55.345Z,95.00
2023-01-28T08:56:22.289Z,94.17
2023-01-28T08:58:50.395Z,94.26
2023-01-28T09:01:17.919Z,95.13
2023-01-28T09:03:46.442Z,95.06
2023-01-28T09:06:14.126Z,95.30
2023-01-28T09:08:42.434Z,94.99
2023-01-28T09:11:09.901Z,95.83
2023-01-28T09:13:37.438Z,94.96
2023-01-28T09:16:06.134Z,95.41
2023-01-28T09:18:33.079Z,94.97
2023-01-28T09:21:00.114Z,95.37
2023-01-28T09:23:27.968Z,95.93
2023-01-28T09:26:01.105Z,95.41
2023-01-28T09:28:29.227Z,95.93
2023-01-28T09:31:08.014Z,94.99
2023-01-28T09:33:39.181Z,94.78
2023-01-28T09:36:11.596Z,94.95
2023-01-28T09:38:39.992Z,95.14
2023-01-28T09:41:26.137Z,95.39
2023-01-28T09:44:16.144Z,94.18
2023-01-28T09:46:47.779Z,94.56
2023-01-28T09:49:28.292Z,95.16
2023-01-28T09:54:51.481Z,95.35
2023-01-28T09:57:53.695Z,95.64
2023-01-28T10:00:31.583Z,94.38
2023-01-28T10:03:30.548Z,94.49
2023-01-28T10:06:06.645Z,94.13
2023-01-28T10:08:45.323Z,94.35
2023-01-28T10:11:29.957Z,95.38
2023-01-28T10:14:10.421Z,95.54
2023-01-28T10:16:45.467Z,95.56
2023-01-28T10:19:32.844Z,95.42
2023-01-28T10:22:07.863Z,94.75
2023-01-28T10:24:38.055Z,94.95
2023-01-28T10:27:32.509Z,94.81
2023-01-28T10:30:17.167Z,94.68
2023-01-28T10:32:56.426Z,94.24
2023-01-28T10:35:24.431Z,95.16
2023-01-28T10:37:58.570Z,94.58
2023-01-28T10:40:26.458Z,95.12
2023-01-28T10:42:53.292Z,94.91
2023-01-28T10:45:29.641Z,95.20
2023-01-28T10:48:21.267Z,95.16
2023-01-28T10:50:59.488Z,95.58
2023-01-28T10:53:41.777Z,95.11
2023-01-28T10:56:14.666Z,94.57
2023-01-28T10:58:57.443Z,95.82
2023-01-28T11:01:26.522Z,95.76
2023-01-28T11:03:58.838Z,96.46
2023-01-28T11:06:29.219Z,95.92
2023-01-28T11:08:57.159Z,95.81
2023-01-28T11:11:29.675Z,96.60
2023-01-28T11:13:58.143Z,97.03
2023-01-28T11:16:29.464Z,97.26
2023-01-28T11:19:05.302Z,96.62
2023-01-28T11:21:34.894Z,96.58
2023-01-28T11:24:14.732Z,97.09
2023-01-28T11:26:50.522Z,97.75
2023-01-28T11:29:34.163Z,96.75
2023-01-28T11:32:27.076Z,97.06
2023-01-28T11:34:57.151Z,96.80
2023-01-28T11:37:30.484Z,97.30
2023-01-28T11:40:20.759Z,97.91
2023-01-28T11:42:51.625Z,97.98
2023-01-28T11:45:27.623Z,98.03
2023-01-28T11:51:07.707Z,98.06
2023-01-28T11:53:46.875Z,96.74
2023-01-28T11:56:37.517Z,96.73
2023-01-28T11:59:17.832Z,96.39
2023-01-28T12:02:52.590Z,97.96
2023-01-28T12:05:38.604Z,96.39
2023-01-28T12:08:12.270Z,96.04
2023-01-28T12:10:53.653Z,97.27
2023-01-28T12:13:49.559Z,96.36
2023-01-28T12:16:39.710Z,96.14
2023-01-28T12:19:45.476Z,94.36
2023-01-28T12:22:31.024Z,94.63
2023-01-28T12:25:16.277Z,94.45
2023-01-28T12:28:18.328Z,94.79
2023-01-28T12:31:19.307Z,94.23
2023-01-28T12:34:20.020Z,93.21
2023-01-28T12:37:06.661Z,93.99
2023-01-28T12:40:01.539Z,93.56
2023-01-28T12:42:34.916Z,93.94
2023-01-28T12:45:33.798Z,95.60
2023-01-28T12:48:15.648Z,96.86
2023-01-28T12:51:00.188Z,95.97
2023-01-28T12:53:40.526Z,93.36
2023-01-28T12:56:32.153Z,93.46
2023-01-28T12:59:09.359Z,93.75
2023-01-28T13:01:51.342Z,94.54
2023-01-28T13:04:41.482Z,94.73
2023-01-28T13:07:22.168Z,94.32
2023-01-28T13:13:34.649Z,94.04
2023-01-28T13:16:03.219Z,93.45
2023-01-28T13:18:33.994Z,93.68
2023-01-28T13:21:04.917Z,93.34
2023-01-28T13:23:31.657Z,93.03
2023-01-28T13:26:24.830Z,93.52
2023-01-28T13:28:53.641Z,93.63
2023-01-28T13:31:24.607Z,93.94
2023-01-28T13:33:54.094Z,94.34
2023-01-28T13:36:41.475Z,93.92
2023-01-28T13:39:19.654Z,93.93
2023-01-28T13:41:54.456Z,93.05
2023-01-28T13:44:31.353Z,93.06
2023-01-28T13:47:09.677Z,92.66
2023-01-28T13:49:44.595Z,92.86
2023-01-28T13:55:44.666Z,91.86
2023-01-28T13:58:41.747Z,92.80
2023-01-28T14:01:20.926Z,92.05
2023-01-28T14:04:16.828Z,92.05
2023-01-28T14:10:12.624Z,91.89
2023-01-28T14:12:52.559Z,91.97
2023-01-28T14:15:33.646Z,91.54
2023-01-28T14:18:01.405Z,91.35
2023-01-28T14:20:38.572Z,92.15
2023-01-28T14:23:14.913Z,91.61
2023-01-28T14:25:48.659Z,91.88
2023-01-28T14:28:27.589Z,91.02
2023-01-28T14:31:03.542Z,91.47
2023-01-28T14:33:33.545Z,91.33
2023-01-28T14:36:01.058Z,91.69
2023-01-28T14:38:30.010Z,92.32
2023-01-28T14:40:58.238Z,92.57
2023-01-28T14:43:27.372Z,92.39
2023-01-28T14:46:06.257Z,92.10
2023-01-28T14:48:46.525Z,92.28
2023-01-28T14:51:39.729Z,92.72
2023-01-28T14:54:48.801Z,92.00
2023-01-28T14:57:32.568Z,91.98
2023-01-28T15:00:27.929Z,92.43
2023-01-28T15:02:56.907Z,92.73
2023-01-28T15:05:28.582Z,93.15
2023-01-28T15:07:56.386Z,92.55
2023-01-28T15:10:30.073Z,93.06
2023-01-28T15:13:19.680Z,93.51
2023-01-28T15:15:49.570Z,93.95
2023-01-28T15:18:20.096Z,94.60
2023-01-28T15:20:50.225Z,94.66
2023-01-28T15:23:21.502Z,94.05
2023-01-28T15:25:48.671Z,94.15
2023-01-28T15:28:36.758Z,94.64
2023-01-28T15:31:05.413Z,95.10
2023-01-28T15:33:32.399Z,94.05
2023-01-28T15:36:00.023Z,94.27
2023-01-28T15:38:29.089Z,94.71
2023-01-28T15:40:59.068Z,95.43
2023-01-28T15:46:23.287Z,96.03
2023-01-28T15:49:06.630Z,95.77
2023-01-28T15:51:34.598Z,96.04
2023-01-28T15:54:09.743Z,95.61
2023-01-28T15:56:38.864Z,96.26
2023-01-28T15:59:17.410Z,95.85
2023-01-28T16:01:45.648Z,96.99
2023-01-28T16:04:29.441Z,97.14
2023-01-28T16:06:59.045Z,96.71
2023-01-28T16:09:32.642Z,97.15
2023-01-28T16:12:09.591Z,96.92
2023-01-28T16:15:19.196Z,96.33
2023-01-28T16:20:42.295Z,96.93
2023-01-28T16:23:22.640Z,96.42
2023-01-28T16:26:04.064Z,96.24
2023-01-28T16:28:31.754Z,97.81
2023-01-28T16:31:00.596Z,96.91
2023-01-28T16:33:28.368Z,96.67
2023-01-28T16:36:07.695Z,97.98
2023-01-28T16:38:35.905Z,97.70
2023-01-28T16:41:03.164Z,97.76
2023-01-28T16:43:30.895Z,97.77
2023-01-28T16:45:59.414Z,96.88
2023-01-28T16:48:27.505Z,97.80
2023-01-28T16:50:55.200Z,97.44
2023-01-28T16:53:31.236Z,97.53
2023-01-28T16:55:58.350Z,97.00
2023-01-28T16:58:28.609Z,96.42
2023-01-28T17:00:55.828Z,96.04
2023-01-28T17:03:23.766Z,96.74
2023-01-28T17:05:51.555Z,95.71
2023-01-28T17:08:19.230Z,95.81
2023-01-28T17:10:46.240Z,96.21
2023-01-28T17:13:13.162Z,95.92
2023-01-28T17:15:40.432Z,95.14
2023-01-28T17:18:10.472Z,96.17
2023-01-28T17:20:38.144Z,95.79
2023-01-28T17:23:07.724Z,95.00
2023-01-28T17:25:39.210Z,95.19
2023-01-28T17:28:07.274Z,95.47
2023-01-28T17:30:35.212Z,94.37
2023-01-28T17:33:04.652Z,95.07
2023-01-28T17:35:32.071Z,94.99
2023-01-28T17:38:01.744Z,94.28
2023-01-28T17:40:28.911Z,94.46
2023-01-28T17:42:59.985Z,94.78
2023-01-28T17:45:31.115Z,94.49
2023-01-28T17:47:58.603Z,94.55
2023-01-28T17:50:27.497Z,93.92
2023-01-28T17:52:58.053Z,94.50
2023-01-28T17:55:26.200Z,93.50
2023-01-28T17:57:53.382Z,93.69
2023-01-28T18:00:21.255Z,94.64
2023-01-28T18:02:51.389Z,93.43
2023-01-28T18:05:22.022Z,94.35
2023-01-28T18:08:13.935Z,93.03
2023-01-28T18:10:46.832Z,93.48
2023-01-28T18:13:17.163Z,93.50
2023-01-28T18:15:44.636Z,93.09
2023-01-28T18:18:36.696Z,93.09
2023-01-28T18:21:08.805Z,93.07
2023-01-28T18:23:36.494Z,93.09
2023-01-28T18:26:04.001Z,93.11
2023-01-28T18:28:31.852Z,92.92
2023-01-28T18:31:05.267Z,93.07
2023-01-28T18:33:36.437Z,93.17
2023-01-28T18:36:05.691Z,92.88
2023-01-28T18:38:33.197Z,93.14
2023-01-28T18:41:26.171Z,92.47
2023-01-28T18:43:54.504Z,93.89
2023-01-28T18:46:22.491Z,92.83
2023-01-28T18:48:50.942Z,92.12
2023-01-28T18:51:29.987Z,91.69
2023-01-28T18:54:03.667Z,92.92
2023-01-28T18:56:32.212Z,91.92
2023-01-28T18:59:04.962Z,92.37
2023-01-28T19:01:33.632Z,92.18
2023-01-28T19:04:01.702Z,91.05
2023-01-28T19:06:31.973Z,91.15
2023-01-28T19:09:01.501Z,92.08
2023-01-28T19:11:30.822Z,91.88
2023-01-28T19:13:58.858Z,90.70
2023-01-28T19:16:26.528Z,91.64
2023-01-28T19:19:03.768Z,92.00
2023-01-28T19:21:33.102Z,91.26
2023-01-28T19:24:04.921Z,90.92
2023-01-28T19:26:33.802Z,92.02
2023-01-28T19:29:03.045Z,91.83
2023-01-28T19:31:31.109Z,91.28
2023-01-28T19:34:01.281Z,92.32
2023-01-28T19:36:31.556Z,91.49
2023-01-28T19:39:00.593Z,91.88
2023-01-28T19:41:29.419Z,91.94
2023-01-28T19:43:57.783Z,92.11
2023-01-28T19:46:25.444Z,92.19
2023-01-28T19:48:53.489Z,91.91
2023-01-28T19:51:23.024Z,91.39
2023-01-28T19:53:52.071Z,92.22
2023-01-28T19:56:20.927Z,91.28
2023-01-28T19:58:48.717Z,92.09
2023-01-28T20:01:21.901Z,92.25
2023-01-28T20:03:55.347Z,92.27
2023-01-28T20:06:24.563Z,91.94
2023-01-28T20:08:57.225Z,91.56
2023-01-28T20:11:49.193Z,91.44
2023-01-28T20:14:16.952Z,91.69
2023-01-28T20:16:44.567Z,90.75
2023-01-28T20:19:18.795Z,91.40
2023-01-28T20:21:47.560Z,91.27
2023-01-28T20:24:16.089Z,91.78
2023-01-28T20:26:44.619Z,91.09
2023-01-28T20:29:15.223Z,91.48
2023-01-28T20:32:17.625Z,91.62
2023-01-28T20:34:46.822Z,90.67
2023-01-28T20:37:15.121Z,91.33
2023-01-28T20:39:47.078Z,91.58
2023-01-28T20:42:19.101Z,91.33
2023-01-28T20:44:47.837Z,90.28
2023-01-28T20:47:16.706Z,90.53
2023-01-28T20:49:46.562Z,90.53
2023-01-28T20:52:14.996Z,91.07
2023-01-28T20:54:44.040Z,90.16
2023-01-28T20:57:11.219Z,90.53
2023-01-28T20:59:38.756Z,89.73
2023-01-28T21:02:06.740Z,89.65
2023-01-28T21:04:34.837Z,89.53
2023-01-28T21:07:02.414Z,89.96
2023-01-28T21:09:30.177Z,89.78
2023-01-28T21:11:57.226Z,89.01
2023-01-28T21:14:27.425Z,88.96
2023-01-28T21:16:54.690Z,88.86
2023-01-28T21:19:23.703Z,88.78
2023-01-28T21:21:50.946Z,88.85
2023-01-28T21:24:43.332Z,88.98
2023-01-28T21:27:11.574Z,88.71
2023-01-28T21:29:40.155Z,89.36
2023-01-28T21:32:08.160Z,88.67
2023-01-28T21:34:35.457Z,89.04
2023-01-28T21:39:54.870Z,89.02
2023-01-28T21:42:22.190Z,88.50
2023-01-28T21:44:49.441Z,89.18
2023-01-28T21:47:16.761Z,88.78
2023-01-28T21:49:47.796Z,88.72
2023-01-28T21:52:15.054Z,89.01
2023-01-28T21:54:45.747Z,89.02
2023-01-28T21:57:12.850Z,88.22
2023-01-28T21:59:40.297Z,89.08
2023-01-28T22:05:04.834Z,88.77
2023-01-28T22:07:32.190Z,89.14
2023-01-28T22:10:00.838Z,89.07
2023-01-28T22:12:29.299Z,88.99
2023-01-28T22:14:56.015Z,89.22
2023-01-28T22:17:48.153Z,89.08
2023-01-28T22:20:15.433Z,89.37
2023-01-28T22:22:43.833Z,89.44
2023-01-28T22:25:10.610Z,89.05
2023-01-28T22:30:29.413Z,88.85
2023-01-28T22:32:56.203Z,88.89
2023-01-28T22:35:23.076Z,89.40
2023-01-28T22:37:49.928Z,89.07
2023-01-28T22:40:17.337Z,88.86
2023-01-28T22:42:44.576Z,89.61
2023-01-28T22:45:11.897Z,89.02
2023-01-28T22:47:38.749Z,89.35
2023-01-28T22:50:06.382Z,89.68
2023-01-28T22:52:35.759Z,89.45
2023-01-28T22:55:02.987Z,89.77
2023-01-28T22:57:31.737Z,89.18
2023-01-28T23:00:00.664Z,89.25
2023-01-28T23:02:31.267Z,88.83
2023-01-28T23:07:49.322Z,88.71
2023-01-28T23:10:16.432Z,89.18
2023-01-28T23:12:45.581Z,88.74
2023-01-28T23:15:13.740Z,88.57
2023-01-28T23:17:41.274Z,88.22
2023-01-28T23:20:10.473Z,88.71
2023-01-28T23:22:38.523Z,88.97
2023-01-28T23:25:06.653Z,88.54
2023-01-28T23:27:34.450Z,89.03
2023-01-28T23:30:02.790Z,88.53
2023-01-28T23:32:29.921Z,88.51
2023-01-28T23:34:56.652Z,88.33
2023-01-28T23:37:25.352Z,88.48
2023-01-28T23:39:52.114Z,88.50
2023-01-28T23:42:21.504Z,88.23
2023-01-28T23:44:48.382Z,88.00
2023-01-28T23:47:16.369Z,88.18
2023-01-28T23:49:43.898Z,88.05
2023-01-28T23:52:11.433Z,87.72
2023-01-28T23:54:38.310Z,87.53
2023-01-28T23:57:05.449Z,88.43
2023-01-28T23:59:32.778Z,88.38
